createdAt,value
2023-01-11T00:01:11.925Z,44.53
2023-01-11T00:06:33.775Z,47.38
2023-01-11T00:11:55.580Z,44.33
2023-01-11T00:17:17.372Z,48.50
2023-01-11T00:22:39.190Z,44.15
2023-01-11T00:28:01.061Z,43.92
2023-01-11T00:33:22.889Z,40.63
2023-01-11T00:38:44.708Z,42.17
2023-01-11T00:44:07.197Z,43.60
2023-01-11T00:49:29.542Z,45.28
2023-01-11T00:54:51.464Z,42.88
2023-01-11T01:00:13.708Z,43.47
2023-01-11T01:05:38.189Z,50.65
2023-01-11T01:11:00.031Z,49.58
2023-01-11T01:16:21.936Z,55.22
2023-01-11T01:21:43.919Z,54.17
2023-01-11T01:27:05.713Z,59.33
2023-01-11T01:32:27.607Z,51.45
2023-01-11T01:37:49.455Z,51.03
2023-01-11T01:43:12.887Z,60.10
2023-01-11T01:48:37.633Z,57.97
2023-01-11T01:54:04.732Z,57.45
2023-01-11T01:59:30.176Z,62.42
2023-01-11T02:04:54.472Z,54.70
2023-01-11T02:10:20.042Z,61.08
2023-01-11T02:15:41.899Z,63.83
2023-01-11T02:21:19.793Z,61.95
2023-01-11T02:26:56.472Z,61.60
2023-01-11T02:32:37.006Z,62.40
2023-01-11T02:38:04.094Z,56.42
2023-01-11T02:43:32.278Z,61.28
2023-01-11T02:49:26.698Z,57.38
2023-01-11T02:54:54.930Z,71.53
2023-01-11T03:00:19.165Z,57.22
2023-01-11T03:05:50.053Z,65.40
2023-01-11T03:11:38.115Z,94.00
2023-01-11T03:17:21.226Z,136.38
2023-01-11T03:22:52.096Z,71.90
2023-01-11T03:28:22.638Z,74.60
2023-01-11T03:33:56.287Z,125.18
2023-01-11T03:39:45.472Z,112.90
2023-01-11T03:45:07.877Z,206.25
2023-01-11T03:50:33.395Z,110.93
2023-01-11T03:55:57.715Z,215.00
2023-01-11T04:01:19.606Z,170.82
2023-01-11T04:06:41.482Z,106.80
2023-01-11T04:12:03.677Z,281.17
2023-01-11T04:17:25.509Z,170.88
2023-01-11T04:22:47.424Z,144.20
2023-01-11T04:28:09.329Z,292.35
2023-01-11T04:33:31.161Z,153.30
2023-01-11T04:38:52.993Z,185.15
2023-01-11T04:44:15.073Z,227.38
2023-01-11T04:49:36.906Z,159.48
2023-01-11T04:54:58.773Z,309.23
2023-01-11T05:00:20.892Z,277.98
2023-01-11T05:05:42.714Z,243.02
2023-01-11T05:11:07.751Z,150.88
2023-01-11T05:16:29.655Z,128.07
2023-01-11T05:21:51.511Z,150.90
2023-01-11T05:27:13.336Z,191.13
2023-01-11T05:32:35.183Z,149.43
2023-01-11T05:37:56.988Z,121.40
2023-01-11T05:43:18.817Z,191.43
2023-01-11T05:48:40.636Z,119.90
2023-01-11T05:54:05.075Z,83.55
2023-01-11T05:59:26.939Z,61.17
2023-01-11T06:04:48.812Z,57.40
2023-01-11T06:10:11.017Z,69.75
2023-01-11T06:15:32.816Z,97.65
2023-01-11T06:20:55.567Z,147.85
2023-01-11T06:26:20.292Z,99.15
2023-01-11T06:31:42.225Z,97.03
2023-01-11T06:37:04.089Z,61.22
2023-01-11T06:42:25.989Z,119.53
2023-01-11T06:47:48.009Z,101.00
2023-01-11T06:53:09.894Z,100.72
2023-01-11T06:58:31.751Z,54.03
2023-01-11T07:03:53.713Z,143.35
2023-01-11T07:09:15.643Z,130.68
2023-01-11T07:14:37.485Z,143.85
2023-01-11T07:19:59.478Z,121.85
2023-01-11T07:25:21.346Z,79.30
2023-01-11T07:30:59.899Z,80.45
2023-01-11T07:36:22.178Z,54.90
2023-01-11T07:41:44.047Z,45.58
2023-01-11T07:47:06.063Z,45.25
2023-01-11T07:52:27.934Z,53.22
2023-01-11T07:57:49.789Z,43.47
2023-01-11T08:03:11.881Z,51.67
2023-01-11T08:08:33.847Z,41.03
2023-01-11T08:13:55.749Z,80.85
2023-01-11T08:19:17.735Z,57.20
2023-01-11T08:24:39.891Z,100.32
2023-01-11T08:30:01.782Z,83.15
2023-01-11T08:35:25.580Z,39.33
2023-01-11T08:40:47.480Z,45.45
2023-01-11T08:46:10.348Z,34.70
2023-01-11T08:51:32.279Z,36.83
2023-01-11T08:56:55.389Z,43.60
2023-01-11T09:02:17.232Z,37.63
2023-01-11T09:07:39.095Z,26.58
2023-01-11T09:13:01.186Z,38.22
2023-01-11T09:18:23.084Z,40.17
2023-01-11T09:23:44.912Z,71.32
2023-01-11T09:29:07.252Z,38.03
2023-01-11T09:34:29.064Z,69.80
2023-01-11T09:39:50.896Z,37.45
2023-01-11T09:45:17.899Z,51.80
2023-01-11T09:50:44.599Z,39.75
2023-01-11T09:56:13.757Z,63.28
2023-01-11T10:02:18.061Z,62.33
2023-01-11T10:07:52.827Z,40.80
2023-01-11T10:19:39.393Z,43.60
2023-01-11T10:25:18.870Z,26.55
2023-01-11T10:30:47.598Z,35.60
2023-01-11T10:36:33.710Z,45.05
2023-01-11T10:42:10.773Z,67.65
2023-01-11T10:47:43.111Z,48.35
2023-01-11T10:53:12.495Z,28.38
2023-01-11T10:58:51.067Z,46.03
2023-01-11T11:04:24.874Z,30.23
2023-01-11T11:10:13.661Z,26.02
2023-01-11T11:15:46.678Z,36.72
2023-01-11T11:21:21.932Z,32.97
2023-01-11T11:26:49.425Z,38.33
2023-01-11T11:32:36.634Z,45.72
2023-01-11T11:37:58.954Z,39.60
2023-01-11T11:43:25.788Z,24.98
2023-01-11T11:49:16.596Z,47.05
2023-01-11T11:54:49.792Z,26.83
2023-01-11T12:00:22.658Z,27.52
2023-01-11T12:06:00.567Z,24.42
2023-01-11T12:11:40.793Z,27.95
2023-01-11T12:17:25.417Z,22.55
2023-01-11T12:22:48.434Z,24.05
2023-01-11T12:28:13.132Z,21.55
2023-01-11T12:33:43.961Z,21.95
2023-01-11T12:39:11.806Z,19.38
2023-01-11T12:45:02.802Z,20.48
2023-01-11T12:50:59.753Z,21.05
2023-01-11T12:56:33.561Z,23.00
2023-01-11T13:02:07.469Z,23.30
2023-01-11T13:07:29.280Z,20.30
2023-01-11T13:13:14.927Z,19.95
2023-01-11T13:18:44.651Z,23.60
2023-01-11T13:24:13.436Z,16.25
2023-01-11T13:29:39.891Z,21.70
2023-01-11T13:35:28.018Z,26.25
2023-01-11T13:40:54.612Z,17.08
2023-01-11T13:46:23.096Z,17.42
2023-01-11T13:52:10.002Z,17.10
2023-01-11T13:58:09.176Z,20.42
2023-01-11T14:03:41.263Z,18.23
2023-01-11T14:09:15.130Z,17.67
2023-01-11T14:15:06.228Z,19.90
2023-01-11T14:20:29.072Z,17.05
2023-01-11T14:26:25.378Z,16.95
2023-01-11T14:32:14.872Z,18.90
2023-01-11T14:38:09.025Z,17.05
2023-01-11T14:43:43.147Z,23.75
2023-01-11T14:49:33.012Z,19.58
2023-01-11T14:54:57.476Z,19.10
2023-01-11T15:00:19.294Z,21.75
2023-01-11T15:05:58.027Z,22.17
2023-01-11T15:11:39.948Z,19.33
2023-01-11T15:17:02.876Z,18.73
2023-01-11T15:22:33.313Z,19.48
2023-01-11T15:27:56.643Z,26.33
2023-01-11T15:33:18.576Z,25.27
2023-01-11T15:39:02.049Z,22.95
2023-01-11T15:44:48.507Z,20.70
2023-01-11T15:50:32.160Z,24.67
2023-01-11T15:56:28.357Z,20.23
2023-01-11T16:02:14.895Z,20.25
2023-01-11T16:07:57.054Z,21.40
2023-01-11T16:13:48.076Z,19.98
2023-01-11T16:19:18.337Z,20.33
2023-01-11T16:24:44.831Z,21.73
2023-01-11T16:35:29.218Z,22.70
2023-01-11T16:40:54.055Z,20.55
2023-01-11T16:46:37.862Z,23.70
2023-01-11T16:52:00.438Z,24.60
2023-01-11T16:57:30.035Z,26.40
2023-01-11T17:03:25.299Z,21.42
2023-01-11T17:08:55.703Z,26.80
2023-01-11T17:14:23.593Z,27.48
2023-01-11T17:19:49.819Z,25.77
2023-01-11T17:25:29.590Z,23.60
2023-01-11T17:30:56.370Z,24.95
2023-01-11T17:36:18.312Z,24.73
2023-01-11T17:41:40.964Z,25.13
2023-01-11T17:47:07.092Z,27.05
2023-01-11T17:52:34.393Z,29.60
2023-01-11T17:58:20.570Z,26.88
2023-01-11T18:03:45.465Z,26.65
2023-01-11T18:09:20.347Z,23.17
2023-01-11T18:14:50.296Z,23.85
2023-01-11T18:20:15.352Z,25.00
2023-01-11T18:25:37.597Z,31.75
2023-01-11T18:31:00.756Z,29.23
2023-01-11T18:36:24.268Z,27.67
2023-01-11T18:41:46.147Z,29.77
2023-01-11T18:47:23.057Z,31.60
2023-01-11T18:52:44.954Z,26.55
2023-01-11T18:58:06.936Z,34.55
2023-01-11T19:03:28.789Z,31.30
2023-01-11T19:08:50.731Z,29.90
2023-01-11T19:14:12.670Z,23.95
2023-01-11T19:19:34.891Z,26.33
2023-01-11T19:24:56.724Z,22.10
2023-01-11T19:30:18.615Z,22.17
2023-01-11T19:35:40.559Z,22.10
2023-01-11T19:41:08.100Z,25.20
2023-01-11T19:46:32.003Z,22.77
2023-01-11T19:51:54.237Z,25.48
2023-01-11T19:57:18.407Z,25.45
2023-01-11T20:02:40.372Z,28.35
2023-01-11T20:08:02.287Z,25.27
2023-01-11T20:13:24.174Z,27.60
2023-01-11T20:18:54.173Z,30.17
2023-01-11T20:24:16.121Z,29.90
2023-01-11T20:29:37.951Z,25.83
2023-01-11T20:34:59.840Z,30.17
2023-01-11T20:40:21.658Z,32.00
2023-01-11T20:45:43.650Z,34.17
2023-01-11T20:51:05.833Z,29.30
2023-01-11T20:56:27.715Z,34.70
2023-01-11T21:01:50.446Z,36.70
2023-01-11T21:07:12.429Z,36.75
2023-01-11T21:12:34.331Z,36.33
2023-01-11T21:17:56.203Z,39.88
2023-01-11T21:23:18.068Z,31.55
2023-01-11T21:28:41.249Z,37.83
2023-01-11T21:34:04.161Z,39.28
2023-01-11T21:39:26.285Z,37.17
2023-01-11T21:44:48.170Z,41.83
2023-01-11T21:50:10.784Z,39.35
2023-01-11T21:55:33.261Z,33.97
2023-01-11T22:00:55.169Z,34.55
2023-01-11T22:06:17.811Z,36.60
2023-01-11T22:11:39.887Z,34.00
2023-01-11T22:17:04.457Z,38.10
2023-01-11T22:22:26.753Z,34.92
2023-01-11T22:27:48.648Z,33.55
2023-01-11T22:33:10.515Z,34.38
2023-01-11T22:38:32.650Z,32.65
2023-01-11T22:43:54.472Z,35.03
2023-01-11T22:49:16.297Z,31.45
2023-01-11T22:54:38.152Z,35.65
2023-01-11T23:00:00.007Z,32.30
2023-01-11T23:05:21.957Z,33.92
2023-01-11T23:10:43.993Z,32.00
2023-01-11T23:16:06.142Z,35.28
2023-01-11T23:21:28.545Z,30.02
2023-01-11T23:26:50.479Z,33.30
2023-01-11T23:32:12.391Z,35.42
2023-01-11T23:37:34.251Z,30.70
2023-01-11T23:42:58.801Z,33.55
2023-01-11T23:48:20.670Z,37.08
2023-01-11T23:53:42.556Z,36.33
2023-01-11T23:59:05.654Z,36.95
